Westdorpe, Netherlands
Current Conditions -  °F | °C
As of 5:55 PM on Saturday 25 Oct 2014 (Local Time) from EHFS Reporting Station
Broken Clouds Broken Clouds  
Wind Chill: 57°   Ceiling: 4500
Heat Index: 57°   Visibility: 6mi
Dew Point: 48°   Wind: 18mph
Humidity: 72%   Direction: 250°WSW
Pressure: 30.09"   Gusts: NA
Location:  51.23°N, 3.83°E
Report Text: EHFS 251555Z AUTO 25016KT 9999 BKN045/// 14/09 Q1019
Loading
Personal Weather Stations






























Interactive Weather Map
Tropical Storm Tracking
New forecast layout! Learn more

10-Day Weather Forecast

Advertisements
Track Severe Weather on mobile